Time;durP1;ratioP1;P1;durP2;ratioP2;P2;SDS_P1;SDS_P2;PMS_P1;PMS_P2;Temp;Humidity;BMP_temperature;BMP_pressure;BME280_temperature;BME280_humidity;BME280_pressure;Samples;Min_cycle;Max_cycle;Signal;HPM_P1;HPM_P2
2023/04/20 00:01:00;;;;;;;4.68;1.48;;;;;;;;;;5068098;28;20350;-76
2023/04/20 00:03:26;;;;;;;6.10;1.40;;;;;;;;;;5060190;28;20043;-76
2023/04/20 00:05:52;;;;;;;7.82;1.48;;;;;;;;;;5059010;28;20393;-76
2023/04/20 00:08:31;;;;;;;5.22;1.50;;;;;;;;;;5055550;28;20029;-76
2023/04/20 00:10:56;;;;;;;6.03;1.50;;;;;;;;;;5052084;28;20029;-76
2023/04/20 00:13:21;;;;;;;3.38;1.45;;;;;;;;;;5059103;28;20028;-76
2023/04/20 00:16:00;;;;;;;3.20;1.20;;;;;;;;;;5061245;28;20485;-76
2023/04/20 00:18:25;;;;;;;5.68;1.48;;;;;;;;;;5060516;28;20086;-76
2023/04/20 00:20:51;;;;;;;6.70;1.60;;;;;;;;;;5053684;28;20024;-76
2023/04/20 00:23:29;;;;;;;8.48;1.70;;;;;;;;;;5062496;28;20063;-76
2023/04/20 00:25:54;;;;;;;6.43;1.60;;;;;;;;;;5055521;28;20397;-76
2023/04/20 00:28:20;;;;;;;4.43;1.60;;;;;;;;;;5066930;28;20024;-76
2023/04/20 00:30:59;;;;;;;7.60;1.48;;;;;;;;;;5062924;28;20477;-77
2023/04/20 00:33:24;;;;;;;5.45;1.70;;;;;;;;;;5042600;28;20120;-77
2023/04/20 00:35:50;;;;;;;4.63;1.70;;;;;;;;;;5065072;28;20119;-76
2023/04/20 00:38:28;;;;;;;4.05;2.13;;;;;;;;;;5058701;28;20073;-76
2023/04/20 00:40:56;;;;;;;5.03;1.67;;;;;;;;;;5063930;28;20090;-76
2023/04/20 00:43:35;;;;;;;10.13;2.05;;;;;;;;;;5053550;28;20025;-76
2023/04/20 00:46:02;;;;;;;4.28;1.83;;;;;;;;;;5056289;28;20040;-77
2023/04/20 00:48:27;;;;;;;7.47;2.22;;;;;;;;;;5060032;28;20029;-76
2023/04/20 00:51:07;;;;;;;9.68;2.10;;;;;;;;;;5064527;28;20041;-76
2023/04/20 00:53:32;;;;;;;7.07;1.70;;;;;;;;;;5049804;28;20114;-76
2023/04/20 00:55:58;;;;;;;7.63;2.20;;;;;;;;;;5069789;28;20060;-76
2023/04/20 00:58:36;;;;;;;6.85;2.13;;;;;;;;;;5067907;28;20039;-76
2023/04/20 01:01:01;;;;;;;13.15;2.22;;;;;;;;;;5070272;28;20037;-76
2023/04/20 01:03:27;;;;;;;10.02;2.20;;;;;;;;;;5068569;28;20032;-76
2023/04/20 01:06:05;;;;;;;9.18;2.33;;;;;;;;;;5067764;28;20040;-76
2023/04/20 01:08:30;;;;;;;11.73;2.03;;;;;;;;;;5067941;28;20094;-76
2023/04/20 01:10:56;;;;;;;6.57;2.00;;;;;;;;;;5062063;28;20033;-76
2023/04/20 01:13:34;;;;;;;6.38;1.85;;;;;;;;;;5059858;28;20033;-76
2023/04/20 01:16:00;;;;;;;5.50;1.88;;;;;;;;;;5047904;28;20107;-76
2023/04/20 01:18:25;;;;;;;8.90;2.25;;;;;;;;;;5055819;28;20029;-77
2023/04/20 01:21:04;;;;;;;6.30;1.83;;;;;;;;;;5056657;28;20077;-77
2023/04/20 01:23:33;;;;;;;6.20;1.80;;;;;;;;;;5050000;28;20075;-76
2023/04/20 01:26:16;;;;;;;6.45;1.85;;;;;;;;;;5066831;28;20057;-76
2023/04/20 01:28:42;;;;;;;4.22;1.65;;;;;;;;;;5061616;28;20029;-76
2023/04/20 01:31:14;;;;;;;9.20;2.13;;;;;;;;;;5049263;28;20393;-76
2023/04/20 01:33:46;;;;;;;5.30;2.10;;;;;;;;;;5047226;28;20544;-76
2023/04/20 01:36:11;;;;;;;11.75;2.70;;;;;;;;;;5079175;28;20094;-77
2023/04/20 01:38:43;;;;;;;10.50;2.53;;;;;;;;;;5059863;28;20469;-76
2023/04/20 01:41:16;;;;;;;11.30;2.40;;;;;;;;;;5059656;28;20051;-76
2023/04/20 01:43:41;;;;;;;9.98;2.35;;;;;;;;;;5067288;28;20037;-76
2023/04/20 01:46:13;;;;;;;12.68;2.22;;;;;;;;;;5052014;28;20049;-77
2023/04/20 01:48:45;;;;;;;6.15;2.38;;;;;;;;;;5060371;28;20106;-76
2023/04/20 01:51:10;;;;;;;5.28;2.20;;;;;;;;;;5063041;28;20118;-77
2023/04/20 01:53:42;;;;;;;9.77;2.75;;;;;;;;;;5071299;28;20048;-77
2023/04/20 01:56:14;;;;;;;6.82;2.65;;;;;;;;;;5066802;28;20056;-77
2023/04/20 01:58:39;;;;;;;15.77;2.95;;;;;;;;;;5059817;28;20037;-76
2023/04/20 02:01:11;;;;;;;9.43;2.45;;;;;;;;;;5058709;28;20122;-76
2023/04/20 02:03:43;;;;;;;6.57;2.33;;;;;;;;;;5072729;28;20037;-76
2023/04/20 02:06:08;;;;;;;7.75;2.47;;;;;;;;;;5066059;28;20049;-76
2023/04/20 02:08:40;;;;;;;9.07;2.78;;;;;;;;;;5052921;28;20481;-76
2023/04/20 02:11:12;;;;;;;7.07;2.53;;;;;;;;;;5053073;28;20037;-76
2023/04/20 02:13:37;;;;;;;4.80;2.20;;;;;;;;;;5060397;28;20092;-76
2023/04/20 02:16:09;;;;;;;5.28;2.03;;;;;;;;;;5070454;28;20472;-76
2023/04/20 02:18:41;;;;;;;9.07;3.40;;;;;;;;;;5062209;28;20424;-77
2023/04/20 02:21:06;;;;;;;11.57;2.70;;;;;;;;;;5056275;28;20471;-76
2023/04/20 02:23:38;;;;;;;10.30;2.15;;;;;;;;;;5049132;28;20061;-76
2023/04/20 02:26:10;;;;;;;10.20;3.25;;;;;;;;;;5056481;28;20404;-76
2023/04/20 02:28:36;;;;;;;11.25;2.85;;;;;;;;;;5057050;28;20036;-76
2023/04/20 02:31:07;;;;;;;16.67;2.45;;;;;;;;;;5057604;28;20047;-77
2023/04/20 02:33:39;;;;;;;7.30;2.45;;;;;;;;;;5052814;28;20444;-77
2023/04/20 02:36:04;;;;;;;7.70;2.92;;;;;;;;;;5056810;28;20438;-76
2023/04/20 02:38:36;;;;;;;11.48;3.08;;;;;;;;;;5057411;28;20037;-76
2023/04/20 02:41:09;;;;;;;6.57;2.20;;;;;;;;;;5067743;28;20103;-76
2023/04/20 02:43:35;;;;;;;11.73;2.60;;;;;;;;;;5065630;28;20029;-76
2023/04/20 02:46:07;;;;;;;6.25;2.72;;;;;;;;;;5065062;28;20392;-76
2023/04/20 02:48:39;;;;;;;7.25;2.50;;;;;;;;;;5051732;28;20496;-76
2023/04/20 02:51:04;;;;;;;8.55;2.85;;;;;;;;;;5057030;28;20485;-76
2023/04/20 02:53:36;;;;;;;11.70;2.33;;;;;;;;;;5063526;28;20058;-76
2023/04/20 02:56:08;;;;;;;10.38;2.85;;;;;;;;;;5062125;28;20045;-77
2023/04/20 02:58:33;;;;;;;8.63;2.78;;;;;;;;;;5062623;28;20384;-76
2023/04/20 03:01:06;;;;;;;15.38;2.33;;;;;;;;;;5061855;28;20032;-76
2023/04/20 03:03:38;;;;;;;12.85;3.00;;;;;;;;;;5070593;28;20419;-76
2023/04/20 03:06:03;;;;;;;13.18;2.83;;;;;;;;;;5067491;28;20731;-76
2023/04/20 03:08:35;;;;;;;9.90;2.40;;;;;;;;;;5068978;28;20107;-77
2023/04/20 03:11:08;;;;;;;7.85;2.83;;;;;;;;;;5046507;28;20091;-76
2023/04/20 03:13:33;;;;;;;10.55;2.70;;;;;;;;;;5059211;28;20037;-77
2023/04/20 03:16:05;;;;;;;7.38;2.65;;;;;;;;;;5048525;28;20128;-76
2023/04/20 03:18:37;;;;;;;12.07;2.95;;;;;;;;;;5052856;28;20094;-76
2023/04/20 03:21:02;;;;;;;12.40;3.00;;;;;;;;;;5056913;28;20095;-76
2023/04/20 03:23:34;;;;;;;7.47;2.95;;;;;;;;;;5066590;28;20036;-76
2023/04/20 03:26:06;;;;;;;9.98;2.80;;;;;;;;;;5054606;28;20067;-76
2023/04/20 03:28:32;;;;;;;9.38;2.30;;;;;;;;;;5071522;28;20041;-76
2023/04/20 03:31:05;;;;;;;10.30;2.85;;;;;;;;;;5065820;28;20472;-76
2023/04/20 03:33:37;;;;;;;13.52;2.63;;;;;;;;;;5055022;28;20097;-77
2023/04/20 03:36:04;;;;;;;14.82;3.55;;;;;;;;;;5057693;28;20495;-77
2023/04/20 03:38:36;;;;;;;9.32;2.53;;;;;;;;;;5061119;28;20120;-76
2023/04/20 03:41:08;;;;;;;14.27;3.00;;;;;;;;;;5067439;28;20041;-76
2023/04/20 03:43:33;;;;;;;13.38;3.63;;;;;;;;;;5059404;28;20101;-76
2023/04/20 03:46:05;;;;;;;11.70;3.28;;;;;;;;;;5053978;28;20521;-76
2023/04/20 03:48:38;;;;;;;6.82;3.53;;;;;;;;;;5069858;28;20055;-77
2023/04/20 03:51:03;;;;;;;16.17;4.32;;;;;;;;;;5066573;28;20071;-76
2023/04/20 03:53:35;;;;;;;11.52;4.13;;;;;;;;;;5064745;28;20044;-76
2023/04/20 03:56:07;;;;;;;8.95;4.25;;;;;;;;;;5059003;28;20047;-76
2023/04/20 03:58:32;;;;;;;8.20;3.65;;;;;;;;;;5061622;28;20493;-76
2023/04/20 04:01:08;;;;;;;10.95;3.95;;;;;;;;;;5060458;28;20029;-76
2023/04/20 04:03:41;;;;;;;14.68;3.88;;;;;;;;;;5061122;28;20028;-76
2023/04/20 04:06:13;;;;;;;11.85;3.65;;;;;;;;;;5059146;28;20052;-77
2023/04/20 04:08:38;;;;;;;11.98;3.92;;;;;;;;;;5055853;28;20040;-76
2023/04/20 04:11:10;;;;;;;13.00;4.05;;;;;;;;;;5057601;28;20033;-77
2023/04/20 04:13:42;;;;;;;15.80;4.03;;;;;;;;;;5062409;28;20384;-77
2023/04/20 04:16:07;;;;;;;12.63;4.38;;;;;;;;;;5051293;28;20037;-76
2023/04/20 04:18:39;;;;;;;13.55;4.53;;;;;;;;;;5062707;28;20550;-77
2023/04/20 04:21:11;;;;;;;16.88;4.40;;;;;;;;;;5060637;28;20051;-76
2023/04/20 04:23:37;;;;;;;11.45;5.05;;;;;;;;;;5063328;28;20072;-76
2023/04/20 04:26:10;;;;;;;13.32;5.70;;;;;;;;;;5053474;28;20111;-76
2023/04/20 04:28:44;;;;;;;18.33;3.90;;;;;;;;;;5062680;28;20044;-76
2023/04/20 04:31:18;;;;;;;10.02;4.03;;;;;;;;;;5060130;28;20079;-76
2023/04/20 04:33:50;;;;;;;12.90;4.35;;;;;;;;;;5039712;28;20480;-76
2023/04/20 04:36:16;;;;;;;25.55;4.88;;;;;;;;;;5063475;28;20123;-76
2023/04/20 04:38:48;;;;;;;8.75;4.55;;;;;;;;;;5061049;28;20048;-77
2023/04/20 04:41:20;;;;;;;17.23;5.10;;;;;;;;;;5055298;28;20036;-76
2023/04/20 04:43:46;;;;;;;12.23;4.65;;;;;;;;;;5058859;28;20032;-76
2023/04/20 04:46:20;;;;;;;21.25;6.57;;;;;;;;;;5055530;28;20032;-76
2023/04/20 04:48:52;;;;;;;32.53;6.03;;;;;;;;;;5047086;28;20388;-77
2023/04/20 04:51:17;;;;;;;13.07;5.35;;;;;;;;;;5069134;28;20147;-76
2023/04/20 04:53:49;;;;;;;17.25;5.50;;;;;;;;;;5061573;28;20100;-77
2023/04/20 04:56:22;;;;;;;10.50;5.47;;;;;;;;;;5062702;28;20047;-76
2023/04/20 04:58:47;;;;;;;20.40;6.13;;;;;;;;;;5069296;28;20036;-77
2023/04/20 05:01:19;;;;;;;13.48;6.10;;;;;;;;;;5061531;28;20029;-77
2023/04/20 05:03:51;;;;;;;17.17;5.28;;;;;;;;;;5058304;28;20388;-77
2023/04/20 05:06:16;;;;;;;26.73;5.03;;;;;;;;;;5055490;28;20067;-76
2023/04/20 05:08:48;;;;;;;19.40;5.55;;;;;;;;;;5057040;28;20489;-76
2023/04/20 05:11:20;;;;;;;22.02;6.70;;;;;;;;;;5057695;28;20436;-77
2023/04/20 05:13:47;;;;;;;30.23;6.28;;;;;;;;;;5052826;28;20469;-76
2023/04/20 05:16:19;;;;;;;15.27;5.72;;;;;;;;;;5057541;28;20040;-76
2023/04/20 05:18:51;;;;;;;13.50;5.30;;;;;;;;;;5071601;28;20032;-77
2023/04/20 05:21:16;;;;;;;17.65;5.50;;;;;;;;;;5058603;28;20358;-76
2023/04/20 05:23:48;;;;;;;28.95;6.72;;;;;;;;;;5054414;28;20059;-77
2023/04/20 05:26:20;;;;;;;24.83;6.35;;;;;;;;;;5061230;28;20065;-77
2023/04/20 05:28:45;;;;;;;16.98;6.57;;;;;;;;;;5055777;28;20477;-77
2023/04/20 05:31:17;;;;;;;22.85;5.30;;;;;;;;;;5066518;28;20032;-76
2023/04/20 05:33:49;;;;;;;26.23;7.35;;;;;;;;;;5075212;28;20200;-77
2023/04/20 05:36:15;;;;;;;15.50;5.65;;;;;;;;;;5059809;28;20055;-77
2023/04/20 05:38:47;;;;;;;13.73;5.57;;;;;;;;;;5064340;28;20028;-77
2023/04/20 05:41:25;;;;;;;18.05;5.80;;;;;;;;;;5057180;28;20040;-76
2023/04/20 05:43:57;;;;;;;13.43;5.35;;;;;;;;;;5064802;28;20041;-77
2023/04/20 05:46:30;;;;;;;11.95;4.60;;;;;;;;;;5064744;28;20128;-76
2023/04/20 05:48:55;;;;;;;14.05;5.50;;;;;;;;;;5066737;28;20111;-77
2023/04/20 05:51:31;;;;;;;14.00;5.65;;;;;;;;;;5057945;28;20033;-77
2023/04/20 05:54:03;;;;;;;24.20;5.97;;;;;;;;;;5059766;28;20029;-77
2023/04/20 05:56:35;;;;;;;21.63;5.68;;;;;;;;;;5062084;28;20033;-77
2023/04/20 05:59:00;;;;;;;19.42;5.85;;;;;;;;;;5070049;28;20044;-77
2023/04/20 06:01:33;;;;;;;13.27;4.35;;;;;;;;;;5053731;28;20044;-77
2023/04/20 06:04:05;;;;;;;12.95;4.63;;;;;;;;;;5065931;28;20063;-77
2023/04/20 06:06:31;;;;;;;11.63;4.65;;;;;;;;;;5062648;28;20422;-77
2023/04/20 06:09:03;;;;;;;14.35;4.47;;;;;;;;;;5063786;28;20074;-77
2023/04/20 06:11:36;;;;;;;14.55;4.40;;;;;;;;;;5053020;28;20056;-77
2023/04/20 06:14:01;;;;;;;13.20;4.47;;;;;;;;;;5060633;28;20045;-77
2023/04/20 06:16:33;;;;;;;15.00;5.05;;;;;;;;;;5072962;28;20361;-77
2023/04/20 06:19:05;;;;;;;9.95;3.40;;;;;;;;;;5066905;28;20051;-78
2023/04/20 06:21:32;;;;;;;9.55;3.90;;;;;;;;;;5061731;28;20542;-77
2023/04/20 06:24:04;;;;;;;11.05;3.72;;;;;;;;;;5073521;28;20051;-77
2023/04/20 06:26:36;;;;;;;7.43;3.17;;;;;;;;;;5048848;28;20480;-77
2023/04/20 06:29:02;;;;;;;14.13;3.70;;;;;;;;;;5058620;28;20079;-78
2023/04/20 06:31:33;;;;;;;9.35;3.97;;;;;;;;;;5058292;28;20389;-77
2023/04/20 06:34:05;;;;;;;12.45;3.92;;;;;;;;;;5071261;28;20055;-77
2023/04/20 06:36:31;;;;;;;12.70;3.00;;;;;;;;;;5064627;28;20082;-77
2023/04/20 06:39:03;;;;;;;7.93;3.60;;;;;;;;;;5074246;28;20035;-78
2023/04/20 06:41:36;;;;;;;9.75;3.50;;;;;;;;;;5067207;28;20032;-78
2023/04/20 06:44:01;;;;;;;11.48;4.00;;;;;;;;;;5059856;28;20154;-78
2023/04/20 06:46:33;;;;;;;12.70;3.60;;;;;;;;;;5068515;28;20120;-77
2023/04/20 06:49:05;;;;;;;11.18;3.75;;;;;;;;;;5058639;28;20485;-77
2023/04/20 06:51:31;;;;;;;12.38;4.07;;;;;;;;;;5054891;28;20191;-78
2023/04/20 06:54:02;;;;;;;12.57;4.18;;;;;;;;;;5064916;28;20525;-78
2023/04/20 06:56:34;;;;;;;8.95;3.28;;;;;;;;;;5062774;28;20100;-78
2023/04/20 06:58:59;;;;;;;13.20;4.13;;;;;;;;;;5070185;28;20041;-78
2023/04/20 07:01:31;;;;;;;8.57;3.50;;;;;;;;;;5067460;28;20350;-78
2023/04/20 07:04:03;;;;;;;8.88;3.25;;;;;;;;;;5055793;28;20044;-77
2023/04/20 07:06:28;;;;;;;10.40;3.80;;;;;;;;;;5064152;28;20121;-78
2023/04/20 07:09:00;;;;;;;12.73;4.25;;;;;;;;;;5060244;28;20059;-78
2023/04/20 07:11:32;;;;;;;9.07;4.22;;;;;;;;;;5061596;28;20029;-79
2023/04/20 07:13:57;;;;;;;12.93;4.30;;;;;;;;;;5056661;28;20044;-78
2023/04/20 07:16:29;;;;;;;10.15;3.63;;;;;;;;;;5061953;28;20075;-78
2023/04/20 07:19:01;;;;;;;12.60;3.55;;;;;;;;;;5061350;28;20477;-77
2023/04/20 07:21:26;;;;;;;11.55;3.70;;;;;;;;;;5058477;28;20086;-77
2023/04/20 07:23:58;;;;;;;12.00;3.42;;;;;;;;;;5056467;28;20021;-78
2023/04/20 07:26:31;;;;;;;9.80;4.13;;;;;;;;;;5059233;28;20044;-76
2023/04/20 07:28:56;;;;;;;9.68;3.63;;;;;;;;;;5057883;28;20444;-79
2023/04/20 07:31:28;;;;;;;11.95;4.15;;;;;;;;;;5056454;28;20028;-78
2023/04/20 07:34:00;;;;;;;6.80;3.40;;;;;;;;;;5059334;28;20037;-78
2023/04/20 07:36:25;;;;;;;8.32;3.35;;;;;;;;;;5054233;28;20453;-77
2023/04/20 07:38:57;;;;;;;15.70;4.25;;;;;;;;;;5063163;28;20060;-77
2023/04/20 07:41:29;;;;;;;11.77;4.18;;;;;;;;;;5062101;28;20127;-78
2023/04/20 07:43:54;;;;;;;13.13;4.10;;;;;;;;;;5061367;28;20376;-77
2023/04/20 07:46:27;;;;;;;8.55;3.20;;;;;;;;;;5063300;28;20492;-77
2023/04/20 07:48:59;;;;;;;9.65;3.17;;;;;;;;;;5060811;28;20037;-77
2023/04/20 07:51:25;;;;;;;8.93;3.58;;;;;;;;;;5059786;28;20044;-77
2023/04/20 07:53:57;;;;;;;7.93;3.33;;;;;;;;;;5059583;28;20377;-77
2023/04/20 07:56:29;;;;;;;10.40;3.58;;;;;;;;;;5052485;28;20048;-77
2023/04/20 07:58:54;;;;;;;12.85;4.28;;;;;;;;;;5059129;28;20043;-78
2023/04/20 08:01:26;;;;;;;11.38;3.70;;;;;;;;;;5055978;28;20538;-78
2023/04/20 08:03:58;;;;;;;12.07;3.63;;;;;;;;;;5055613;28;20362;-78
2023/04/20 08:06:23;;;;;;;13.10;3.90;;;;;;;;;;5058733;28;20037;-78
2023/04/20 08:08:55;;;;;;;9.20;3.45;;;;;;;;;;5065259;28;20040;-77
2023/04/20 08:11:27;;;;;;;10.10;3.55;;;;;;;;;;5057014;28;20033;-78
2023/04/20 08:13:53;;;;;;;11.80;3.92;;;;;;;;;;5063898;28;20044;-77
2023/04/20 08:16:24;;;;;;;13.20;3.80;;;;;;;;;;5059899;28;20381;-78
2023/04/20 08:18:56;;;;;;;9.23;3.33;;;;;;;;;;5046395;28;20441;-78
2023/04/20 08:21:22;;;;;;;10.15;3.50;;;;;;;;;;5052030;28;20476;-78
2023/04/20 08:23:54;;;;;;;9.27;3.63;;;;;;;;;;5053470;28;20042;-78
2023/04/20 08:26:26;;;;;;;15.15;3.75;;;;;;;;;;4781212;28;8107096;-78
2023/04/20 08:28:59;;;;;;;12.23;4.28;;;;;;;;;;5067847;28;20435;-78
2023/04/20 08:31:24;;;;;;;;;;;;;;;;;;5052676;28;20036;-78
2023/04/20 08:33:57;;;;;;;9.73;3.63;;;;;;;;;;5045772;28;20337;-78
2023/04/20 08:36:30;;;;;;;7.78;3.53;;;;;;;;;;5048665;28;20052;-75
2023/04/20 08:39:11;;;;;;;8.65;3.38;;;;;;;;;;5060717;28;20818;-78
2023/04/20 08:41:43;;;;;;;9.57;3.88;;;;;;;;;;5055783;28;20098;-77
2023/04/20 08:44:08;;;;;;;11.90;3.53;;;;;;;;;;5063876;28;20101;-78
2023/04/20 08:46:41;;;;;;;14.13;3.65;;;;;;;;;;5057111;28;20032;-77
2023/04/20 08:49:18;;;;;;;10.10;2.95;;;;;;;;;;5060571;28;20048;-78
2023/04/20 08:51:53;;;;;;;11.90;4.53;;;;;;;;;;5048728;28;20029;-78
2023/04/20 08:54:26;;;;;;;8.88;3.70;;;;;;;;;;5051635;28;20067;-78
2023/04/20 08:56:51;;;;;;;9.55;3.72;;;;;;;;;;5052261;28;20045;-77
2023/04/20 08:59:23;;;;;;;7.78;3.33;;;;;;;;;;5060029;28;20024;-78
2023/04/20 09:01:55;;;;;;;8.25;3.15;;;;;;;;;;5067218;28;20040;-78
2023/04/20 09:04:23;;;;;;;10.90;3.53;;;;;;;;;;5061574;28;20098;-79
2023/04/20 09:06:59;;;;;;;8.50;3.40;;;;;;;;;;5061106;28;20047;-78
2023/04/20 09:09:32;;;;;;;9.05;3.30;;;;;;;;;;5068538;28;20523;-78
2023/04/20 09:12:12;;;;;;;10.15;3.50;;;;;;;;;;5059880;28;20108;-77
2023/04/20 09:14:45;;;;;;;13.00;4.18;;;;;;;;;;5062951;28;20094;-76
2023/04/20 09:17:13;;;;;;;7.90;3.83;;;;;;;;;;5058347;28;20037;-78
2023/04/20 09:19:45;;;;;;;11.70;3.85;;;;;;;;;;5075293;28;20032;-78
2023/04/20 09:22:28;;;;;;;8.10;3.20;;;;;;;;;;5055511;28;20064;-78
2023/04/20 09:25:00;;;;;;;14.02;4.68;;;;;;;;;;5052960;28;20344;-78
2023/04/20 09:27:32;;;;;;;8.02;3.70;;;;;;;;;;5061104;28;20072;-78
2023/04/20 09:29:59;;;;;;;12.87;3.53;;;;;;;;;;5052860;28;20044;-78
2023/04/20 09:32:34;;;;;;;14.55;3.85;;;;;;;;;;5068995;28;20316;-78
2023/04/20 09:35:07;;;;;;;10.38;4.43;;;;;;;;;;5059862;28;20425;-78
2023/04/20 09:37:32;;;;;;;9.30;3.50;;;;;;;;;;5048038;28;20052;-78
2023/04/20 09:40:06;;;;;;;7.57;3.35;;;;;;;;;;5060663;28;20095;-78
2023/04/20 09:42:39;;;;;;;8.55;3.25;;;;;;;;;;5056322;28;20795;-78
2023/04/20 09:45:05;;;;;;;13.73;3.80;;;;;;;;;;5049955;28;20037;-78
2023/04/20 09:47:41;;;;;;;9.25;3.33;;;;;;;;;;5054785;28;20039;-78
2023/04/20 09:50:13;;;;;;;9.82;3.85;;;;;;;;;;5057620;28;20048;-78
2023/04/20 09:52:39;;;;;;;10.27;3.75;;;;;;;;;;5050619;28;20032;-78
2023/04/20 09:55:12;;;;;;;9.43;3.38;;;;;;;;;;5044542;28;20028;-78
2023/04/20 09:57:44;;;;;;;12.63;3.25;;;;;;;;;;5050141;28;20091;-76
2023/04/20 10:00:11;;;;;;;11.07;3.15;;;;;;;;;;5031758;28;20560;-78
2023/04/20 10:02:44;;;;;;;8.13;3.22;;;;;;;;;;5046945;28;20029;-76
2023/04/20 10:05:16;;;;;;;7.07;3.30;;;;;;;;;;5059696;28;20044;-78
2023/04/20 10:07:42;;;;;;;8.37;2.97;;;;;;;;;;5056875;28;20775;-78
2023/04/20 10:10:21;;;;;;;10.50;4.15;;;;;;;;;;5032360;28;20025;-78
2023/04/20 10:12:56;;;;;;;7.78;3.00;;;;;;;;;;5052357;28;20086;-78
2023/04/20 10:15:29;;;;;;;9.65;3.20;;;;;;;;;;5050563;28;20124;-79
2023/04/20 10:18:01;;;;;;;7.43;3.00;;;;;;;;;;5047796;28;20370;-78
2023/04/20 10:20:27;;;;;;;7.17;3.03;;;;;;;;;;5042141;28;20943;-78
2023/04/20 10:23:13;;;;;;;10.68;3.28;;;;;;;;;;5054543;28;20075;-78
2023/04/20 10:25:59;;;;;;;6.95;2.70;;;;;;;;;;5049503;28;20036;-78
2023/04/20 10:28:31;;;;;;;6.50;2.85;;;;;;;;;;5048114;28;20045;-78
2023/04/20 10:31:03;;;;;;;9.50;2.33;;;;;;;;;;5053342;28;20314;-78
2023/04/20 10:33:29;;;;;;;9.73;2.95;;;;;;;;;;5049177;28;20152;-77
2023/04/20 10:36:01;;;;;;;5.97;2.20;;;;;;;;;;5049072;28;20104;-78
2023/04/20 10:38:34;;;;;;;6.18;3.00;;;;;;;;;;5052734;28;20107;-77
2023/04/20 10:41:13;;;;;;;5.03;2.08;;;;;;;;;;5064450;28;20145;-76
2023/04/20 10:43:45;;;;;;;4.97;2.40;;;;;;;;;;5076935;28;20041;-76
2023/04/20 10:46:25;;;;;;;8.27;4.68;;;;;;;;;;5051290;28;20041;-76
2023/04/20 10:49:00;;;;;;;5.03;2.30;;;;;;;;;;5054533;28;20392;-76
2023/04/20 10:51:32;;;;;;;9.07;3.08;;;;;;;;;;5057148;28;20072;-76
2023/04/20 10:54:13;;;;;;;6.70;2.80;;;;;;;;;;5041807;28;20476;-76
2023/04/20 10:56:53;;;;;;;10.45;2.80;;;;;;;;;;5052396;28;20587;-75
2023/04/20 10:59:27;;;;;;;3.85;2.17;;;;;;;;;;5050119;28;20044;-76
2023/04/20 11:02:00;;;;;;;9.00;2.90;;;;;;;;;;5044787;28;20124;-76
2023/04/20 11:04:39;;;;;;;10.75;2.78;;;;;;;;;;5053980;28;20043;-76
2023/04/20 11:07:12;;;;;;;6.78;2.75;;;;;;;;;;5052951;28;20044;-76
2023/04/20 11:09:38;;;;;;;5.15;2.42;;;;;;;;;;5054844;28;20037;-75
2023/04/20 11:12:13;;;;;;;3.92;2.30;;;;;;;;;;5052831;28;20037;-75
2023/04/20 11:15:01;;;;;;;7.63;2.45;;;;;;;;;;5066218;28;20507;-76
2023/04/20 11:17:34;;;;;;;3.30;1.80;;;;;;;;;;5042799;28;20039;-75
2023/04/20 11:20:24;;;;;;;9.83;2.57;;;;;;;;;;5054018;28;20033;-76
2023/04/20 11:22:58;;;;;;;5.15;2.53;;;;;;;;;;5056286;28;20033;-75
2023/04/20 11:25:24;;;;;;;7.15;2.72;;;;;;;;;;5050630;28;20463;-75
2023/04/20 11:27:56;;;;;;;5.18;2.30;;;;;;;;;;5049728;28;20128;-75
2023/04/20 11:30:37;;;;;;;5.43;2.10;;;;;;;;;;5049953;28;20098;-75
2023/04/20 11:33:09;;;;;;;4.22;1.80;;;;;;;;;;5058086;28;20036;-75
2023/04/20 11:35:42;;;;;;;6.35;2.63;;;;;;;;;;5059211;28;20036;-75
2023/04/20 11:38:08;;;;;;;7.22;2.67;;;;;;;;;;5062240;28;20496;-76
2023/04/20 11:40:40;;;;;;;6.53;2.97;;;;;;;;;;5063334;28;20047;-75
2023/04/20 11:43:12;;;;;;;7.70;2.92;;;;;;;;;;5049901;28;20534;-75
2023/04/20 11:45:38;;;;;;;4.28;2.10;;;;;;;;;;5068478;28;20489;-75
2023/04/20 11:48:11;;;;;;;3.20;1.75;;;;;;;;;;5065520;28;20024;-75
2023/04/20 11:50:43;;;;;;;7.35;2.70;;;;;;;;;;5053838;28;20483;-75
2023/04/20 11:53:13;;;;;;;4.10;2.10;;;;;;;;;;5037317;28;20036;-75
2023/04/20 11:55:45;;;;;;;8.43;2.85;;;;;;;;;;5053956;28;20353;-75
2023/04/20 11:58:17;;;;;;;6.22;2.45;;;;;;;;;;5053926;28;20033;-75
2023/04/20 12:00:43;;;;;;;4.15;1.95;;;;;;;;;;5048814;28;20059;-75
2023/04/20 12:03:15;;;;;;;5.32;2.42;;;;;;;;;;5050818;28;20404;-77
2023/04/20 12:05:47;;;;;;;7.45;2.47;;;;;;;;;;5040095;28;20392;-76
2023/04/20 12:08:13;;;;;;;5.18;2.35;;;;;;;;;;5050608;28;20048;-77
2023/04/20 12:10:44;;;;;;;3.72;1.90;;;;;;;;;;5042007;28;20384;-77
2023/04/20 12:13:16;;;;;;;8.68;2.60;;;;;;;;;;5059877;28;20048;-76
2023/04/20 12:15:42;;;;;;;5.50;2.42;;;;;;;;;;5046019;28;20381;-77
2023/04/20 12:18:14;;;;;;;5.55;2.55;;;;;;;;;;5055270;28;20036;-77
2023/04/20 12:20:48;;;;;;;6.38;2.13;;;;;;;;;;5052515;28;20037;-77
2023/04/20 12:23:14;;;;;;;4.03;1.83;;;;;;;;;;5054627;28;20987;-76
2023/04/20 12:25:46;;;;;;;4.53;1.85;;;;;;;;;;5051301;28;20040;-76
2023/04/20 12:28:18;;;;;;;3.15;1.75;;;;;;;;;;5054723;28;20580;-76
2023/04/20 12:30:44;;;;;;;4.55;2.00;;;;;;;;;;5056389;28;20434;-76
2023/04/20 12:33:16;;;;;;;6.70;2.50;;;;;;;;;;5052975;28;20037;-76
2023/04/20 12:35:48;;;;;;;4.60;2.33;;;;;;;;;;5052518;28;20389;-76
2023/04/20 12:38:14;;;;;;;8.20;2.60;;;;;;;;;;5049725;28;20076;-76
2023/04/20 12:40:46;;;;;;;6.32;2.63;;;;;;;;;;5049323;28;20056;-76
2023/04/20 12:43:18;;;;;;;3.95;2.15;;;;;;;;;;5050924;28;20086;-77
2023/04/20 12:45:44;;;;;;;5.45;2.25;;;;;;;;;;5044229;28;20044;-76
2023/04/20 12:48:16;;;;;;;5.78;2.35;;;;;;;;;;5052701;28;20036;-76
2023/04/20 12:50:49;;;;;;;6.88;2.33;;;;;;;;;;5049966;28;20404;-76
2023/04/20 12:53:15;;;;;;;4.72;2.00;;;;;;;;;;5041694;28;20048;-76
2023/04/20 12:55:47;;;;;;;9.30;2.28;;;;;;;;;;5049830;28;20033;-76
2023/04/20 12:58:19;;;;;;;4.22;1.95;;;;;;;;;;5049112;28;20036;-76
2023/04/20 13:00:45;;;;;;;3.38;1.92;;;;;;;;;;5057285;28;20045;-76
2023/04/20 13:03:17;;;;;;;7.28;2.63;;;;;;;;;;5055497;28;20060;-77
2023/04/20 13:05:49;;;;;;;3.53;2.10;;;;;;;;;;5048801;28;20047;-76
2023/04/20 13:08:15;;;;;;;5.22;2.40;;;;;;;;;;5047891;28;20395;-76
2023/04/20 13:10:47;;;;;;;3.85;2.38;;;;;;;;;;5053211;28;20021;-77
2023/04/20 13:13:19;;;;;;;8.52;2.53;;;;;;;;;;5073213;28;20516;-76
2023/04/20 13:15:45;;;;;;;6.30;2.47;;;;;;;;;;5050414;28;20048;-76
2023/04/20 13:18:16;;;;;;;4.68;2.60;;;;;;;;;;5052638;28;20385;-76
2023/04/20 13:20:49;;;;;;;10.60;3.10;;;;;;;;;;5049624;28;20091;-76
2023/04/20 13:23:14;;;;;;;5.20;2.17;;;;;;;;;;5047632;28;20087;-76
2023/04/20 13:25:46;;;;;;;4.45;2.35;;;;;;;;;;5053679;28;20126;-75
2023/04/20 13:28:18;;;;;;;5.90;2.35;;;;;;;;;;5059221;28;20079;-76
2023/04/20 13:30:44;;;;;;;5.22;2.35;;;;;;;;;;5065605;28;20053;-75
2023/04/20 13:33:16;;;;;;;3.40;1.83;;;;;;;;;;5058657;28;20036;-76
2023/04/20 13:35:48;;;;;;;4.20;1.85;;;;;;;;;;5059551;28;20043;-76
2023/04/20 13:38:14;;;;;;;6.38;2.67;;;;;;;;;;5059047;28;20405;-75
2023/04/20 13:40:45;;;;;;;10.68;2.47;;;;;;;;;;5058084;28;20041;-76
2023/04/20 13:43:17;;;;;;;3.97;2.33;;;;;;;;;;5059742;28;20040;-75
2023/04/20 13:45:43;;;;;;;6.78;1.98;;;;;;;;;;5058610;28;20037;-75
2023/04/20 13:48:15;;;;;;;3.65;2.03;;;;;;;;;;5051476;28;20097;-75
2023/04/20 13:50:47;;;;;;;4.60;2.17;;;;;;;;;;5037546;28;20037;-76
2023/04/20 13:53:13;;;;;;;7.03;2.35;;;;;;;;;;5058529;28;20119;-76
2023/04/20 13:55:44;;;;;;;7.05;2.58;;;;;;;;;;5058714;28;20124;-76
2023/04/20 13:58:16;;;;;;;4.95;2.28;;;;;;;;;;5052034;28;20098;-76
2023/04/20 14:00:42;;;;;;;8.77;2.42;;;;;;;;;;5064589;28;20489;-75
2023/04/20 14:03:18;;;;;;;4.28;2.40;;;;;;;;;;5054806;28;20085;-75
2023/04/20 14:05:50;;;;;;;4.97;2.10;;;;;;;;;;5042574;28;20044;-76
2023/04/20 14:08:16;;;;;;;4.22;2.40;;;;;;;;;;5056592;28;20045;-76
2023/04/20 14:10:48;;;;;;;5.40;2.60;;;;;;;;;;5056621;28;20089;-76
2023/04/20 14:13:21;;;;;;;4.25;2.13;;;;;;;;;;5059558;28;20163;-76
2023/04/20 14:15:46;;;;;;;4.90;2.30;;;;;;;;;;5046371;28;20041;-76
2023/04/20 14:18:18;;;;;;;6.75;2.60;;;;;;;;;;5055592;28;20633;-76
2023/04/20 14:20:51;;;;;;;3.53;1.70;;;;;;;;;;5059421;28;20405;-76
2023/04/20 14:23:18;;;;;;;4.22;1.88;;;;;;;;;;5048051;28;20056;-76
2023/04/20 14:25:50;;;;;;;5.30;2.08;;;;;;;;;;5059969;28;20496;-76
2023/04/20 14:28:22;;;;;;;5.80;2.15;;;;;;;;;;5054114;28;20041;-76
2023/04/20 14:30:50;;;;;;;5.93;2.00;;;;;;;;;;5059451;28;20044;-76
2023/04/20 14:33:22;;;;;;;4.72;2.22;;;;;;;;;;5061718;28;20028;-76
2023/04/20 14:35:54;;;;;;;4.35;1.73;;;;;;;;;;5058791;28;20040;-75
2023/04/20 14:38:20;;;;;;;6.63;2.10;;;;;;;;;;5062844;28;20076;-75
2023/04/20 14:40:52;;;;;;;3.85;1.98;;;;;;;;;;5066522;28;20384;-75
2023/04/20 14:43:24;;;;;;;5.68;1.90;;;;;;;;;;5057034;28;20039;-76
2023/04/20 14:45:50;;;;;;;2.92;1.60;;;;;;;;;;5056024;28;20041;-76
2023/04/20 14:48:23;;;;;;;5.15;2.45;;;;;;;;;;5054180;28;20058;-76
2023/04/20 14:50:54;;;;;;;5.70;1.80;;;;;;;;;;5056061;28;20049;-76
2023/04/20 14:53:20;;;;;;;7.40;1.98;;;;;;;;;;5040910;28;20097;-76
2023/04/20 14:55:52;;;;;;;3.97;1.73;;;;;;;;;;5049963;28;20025;-76
2023/04/20 14:58:24;;;;;;;5.25;1.83;;;;;;;;;;5049568;28;20443;-76